Portada
METAR-TAF:

METAR-TAF

Aeroports :

Reyes, Bolívia

latitud: 14-19S, longitud: 067-23W, altitud: 140 m

Observació

L'informe es va fer fa 14 hores i 50 minuts, a les 20:00 UTC
Vent 6 kt del Nord/Nord-Oest
Temperatura 38°C
Humitat 38%
Pressió 1004 hPa
Visibilitat 10 km o més
Escasses núvols a una alçada de 2000 ft

METAR: SLRY 212000Z 34006KT 9999 FEW020 38/21 Q1004

Hora: 06:50 (10:50 UTC)


TAF: manca

Observacions i pronòstics meteorològics de més de 4000 aeroports (METAR i TAF).

Les estacions disponibles són els punts grocs i vermells al mapa.

Posi el ratolí al punt desitjat per veure el nom de l'estació.

Feu clic per veure les observacions i els pronòstics meteorològics.

Per canviar el mapa: feu clic els botons verds amb una creu de color negre per apropar; al botó verd amb un guió per allunyar la imatge; o en les fletxes verdes per a mapes adjacents.


METAR-TAF: